EPKKEPPO

Guest
Details From EPKK - BALICE
To EPPO - LAWICA
Flight Number -
Tags decoded
Created
Modified
Stats Distance 187 nm / 347 km
Max Altitude 0 ft / 0 m
Waypoints 4
Social Downloads 0
Likes 0
Share VATSIM

Download

Looking for another format? Having issues loading an existing format? Contact us
Advertisement - Login to hide

Notes

Requested: EPKK BALOS R236 CZE EPPO Unmatched points: R236

Route

EPKK BALOS CZE EPPO

ID Type Via Altitude (ft/m) Position (lat/lon) Dist (leg/tot) Name
O EPKK APT - 0 / 0 50.07782 / 19.78550 - / 0 nm BALICE
BALOS FIX - 0 / 0 50.27556 / 19.65833 12 / 12 nm
CZE NDB - 0 / 0 52.13636 / 16.72883 156 / 169 nm CZEMPIN NDB
O EPPO APT - 0 / 0 52.42157 / 16.82355 17 / 187 nm LAWICA

Altitude Profile

Advertisement - Login to hide

Weather


0- 5 10 15 20 25 30 35+ Temperature / °C

Clouds and Precipitation
Forecast for 2019-05-26 06:00 UTC. Updated an hour ago

Ground ~20,000 ft ~40,000 ft Winds

EPKK

Details ICAO EPKK (KRK)
Name Krakow John Paul II
Region Poland
Timezone Europe/Warsaw (UTC+2.0)
Stats Elevation 791 ft / 241 m (AMSL)
Location 50.077800° 19.785500°
Runways 1
Magnetic Variation 5.379° E

METAR

EPKK 260430Z 18003KT 6000 FEW055 13/11 Q1014

Decode

TAF

TAF EPKK 260230Z 2603/2703 VRB02KT CAVOK TEMPO 2603/2605 3000 BR PROB40 TEMPO 2610/2618 VRB15G30KT 4000 TSRAGR BKN030CB

Decode

Departure Runways

ID Width Length Bearing (true/mag) Surface Threshold Overrun Markings Lighting
07 197 ft / 60 m 8,374 ft / 2,552 m 77.75° / 72.37° CONCRETE 0 ft / 0 m 0 ft / 0 m PREC-APP CENTERLINE EDGE THRESHOLD SALS REIL-OMNI
25 197 ft / 60 m 8,374 ft / 2,552 m 257.77° / 252.40° CONCRETE 778 ft / 237 m 0 ft / 0 m PREC-APP CENTERLINE EDGE THRESHOLD ALSF-I REIL-OMNI

EPPO

Details ICAO EPPO (POZ)
Name LAWICA
Region Poland
Timezone Europe/Warsaw (UTC+2.0)
Stats Elevation 308 ft / 94 m (AMSL)
Location 52.421600° 16.823600°
Runways 1
Magnetic Variation 4.926° E

METAR

EPPO 260430Z 24006KT 9999 BKN041 10/08 Q1014

Decode

TAF

TAF EPPO 252330Z 2600/2624 26004KT 9999 SCT040 BECMG 2605/2608 25014KT TEMPO 2609/2616 25015G25KT BECMG 2616/2618 25004KT BECMG 2621/2624 19010KT

Decode

Destination Runways

ID Width Length Bearing (true/mag) Surface Threshold Overrun Markings Lighting
11 164 ft / 50 m 8,153 ft / 2,485 m 107.57° / 102.64° ASPHALT 0 ft / 0 m 0 ft / 0 m PREC-APP EDGE THRESHOLD SALS
29 164 ft / 50 m 8,153 ft / 2,485 m 287.59° / 282.67° ASPHALT 0 ft / 0 m 0 ft / 0 m PREC-APP EDGE THRESHOLD ALSF-I

Approach Navaids

Runway Type Ident Frequency Range Bearing (true/mag) Slope Elevation
29 DME POZ 110.30 MHz 18 nm / 33 km - - 331 ft / 101 m (AMSL)
29 LOC-ILS POZ 110.30 MHz 18 nm / 33 km 287.57° / 282.64 ° - 308 ft / 94 m (AMSL)
29 GS POZ 110.30 MHz 10 nm / 19 km 288.16° / 283.23 ° 3.00° 308 ft / 94 m (AMSL)
29 OM OM - - 287.58° / 282.65 ° - 308 ft / 94 m (AMSL)
29 MM MM - - 287.58° / 282.65 ° - 308 ft / 94 m (AMSL)

Popular Alternatives